createdAt,value
2023-04-09T00:01:12.687Z,95.66
2023-04-09T00:03:40.657Z,96.06
2023-04-09T00:06:07.822Z,98.86
2023-04-09T00:08:34.628Z,100.00
2023-04-09T00:11:01.555Z,100.00
2023-04-09T00:15:58.907Z,100.00
2023-04-09T00:18:25.819Z,100.00
2023-04-09T00:20:52.811Z,100.00
2023-04-09T00:23:20.722Z,100.00
2023-04-09T00:25:47.604Z,100.00
2023-04-09T00:28:14.447Z,98.27
2023-04-09T00:30:41.564Z,97.44
2023-04-09T00:33:08.487Z,98.08
2023-04-09T00:35:35.651Z,96.87
2023-04-09T00:38:02.754Z,97.98
2023-04-09T00:40:29.698Z,97.79
2023-04-09T00:42:59.622Z,97.49
2023-04-09T00:45:28.106Z,96.75
2023-04-09T00:47:55.116Z,95.65
2023-04-09T00:50:22.284Z,94.91
2023-04-09T00:52:49.684Z,94.19
2023-04-09T00:55:18.332Z,95.70
2023-04-09T00:57:45.210Z,95.30
2023-04-09T01:00:13.428Z,95.27
2023-04-09T01:02:41.389Z,96.04
2023-04-09T01:05:09.141Z,97.59
2023-04-09T01:08:04.234Z,95.70
2023-04-09T01:10:41.613Z,94.10
2023-04-09T01:13:20.186Z,92.67
2023-04-09T01:15:57.303Z,94.17
2023-04-09T01:18:59.172Z,96.36
2023-04-09T01:21:31.535Z,95.87
2023-04-09T01:24:16.877Z,94.87
2023-04-09T01:27:06.321Z,93.57
2023-04-09T01:29:40.318Z,91.94
2023-04-09T01:32:08.371Z,90.28
2023-04-09T01:34:36.001Z,93.35
2023-04-09T01:37:04.172Z,94.94
2023-04-09T01:39:31.562Z,98.45
2023-04-09T01:41:58.969Z,99.69
2023-04-09T01:44:27.879Z,99.19
2023-04-09T01:46:56.269Z,99.13
2023-04-09T01:49:23.433Z,99.79
2023-04-09T01:51:51.378Z,99.81
2023-04-09T01:54:18.296Z,100.00
2023-04-09T01:56:47.429Z,100.00
2023-04-09T01:59:15.205Z,100.00
2023-04-09T02:01:47.513Z,99.98
2023-04-09T02:04:26.843Z,97.43
2023-04-09T02:06:58.974Z,95.55
2023-04-09T02:09:29.985Z,92.84
2023-04-09T02:12:02.077Z,90.49
2023-04-09T02:14:31.980Z,91.17
2023-04-09T02:16:59.766Z,93.78
2023-04-09T02:19:45.310Z,95.85
2023-04-09T02:22:13.269Z,95.20
2023-04-09T02:24:40.899Z,96.51
2023-04-09T02:27:08.177Z,99.95
2023-04-09T02:29:35.351Z,100.00
2023-04-09T02:32:02.321Z,99.45
2023-04-09T02:34:29.637Z,99.07
2023-04-09T02:36:56.685Z,100.00
2023-04-09T02:39:23.511Z,99.98
2023-04-09T02:41:50.594Z,100.00
2023-04-09T02:44:17.664Z,100.00
2023-04-09T02:46:45.370Z,100.00
2023-04-09T02:49:12.545Z,100.00
2023-04-09T02:51:39.544Z,100.00
2023-04-09T02:54:06.514Z,100.00
2023-04-09T02:56:33.794Z,100.00
2023-04-09T02:59:00.798Z,100.00
2023-04-09T03:01:27.732Z,100.00
2023-04-09T03:03:54.931Z,100.00
2023-04-09T03:06:22.262Z,100.00
2023-04-09T03:08:49.372Z,100.00
2023-04-09T03:11:19.163Z,100.00
2023-04-09T03:13:46.475Z,100.00
2023-04-09T03:16:14.148Z,100.00
2023-04-09T03:18:42.184Z,100.00
2023-04-09T03:21:10.337Z,100.00
2023-04-09T03:23:38.367Z,100.00
2023-04-09T03:26:06.596Z,100.00
2023-04-09T03:28:33.768Z,100.00
2023-04-09T03:31:01.112Z,100.00
2023-04-09T03:33:28.759Z,100.00
2023-04-09T03:35:55.643Z,100.00
2023-04-09T03:38:22.735Z,100.00
2023-04-09T03:40:50.616Z,100.00
2023-04-09T03:43:17.660Z,100.00
2023-04-09T03:45:48.892Z,100.00
2023-04-09T03:48:18.781Z,100.00
2023-04-09T03:51:01.055Z,100.00
2023-04-09T03:53:31.031Z,100.00
2023-04-09T03:55:58.141Z,100.00
2023-04-09T03:58:25.039Z,100.00
2023-04-09T04:00:52.815Z,99.46
2023-04-09T04:03:23.588Z,99.91
2023-04-09T04:05:50.771Z,100.00
2023-04-09T04:08:27.603Z,100.00
2023-04-09T04:10:54.693Z,100.00
2023-04-09T04:13:21.838Z,100.00
2023-04-09T04:15:49.439Z,100.00
2023-04-09T04:18:16.543Z,100.00
2023-04-09T04:20:43.721Z,100.00
2023-04-09T04:23:11.290Z,100.00
2023-04-09T04:25:42.204Z,100.00
2023-04-09T04:28:09.410Z,98.73
2023-04-09T04:30:36.702Z,97.20
2023-04-09T04:33:03.714Z,99.36
2023-04-09T04:35:30.722Z,98.52
2023-04-09T04:37:58.172Z,97.01
2023-04-09T04:40:25.390Z,97.15
2023-04-09T04:42:52.406Z,98.16
2023-04-09T04:45:19.494Z,98.52
2023-04-09T04:47:46.525Z,99.90
2023-04-09T04:50:13.592Z,99.64
2023-04-09T04:52:41.098Z,99.72
2023-04-09T04:55:08.325Z,99.23
2023-04-09T04:57:35.643Z,100.00
2023-04-09T05:00:06.127Z,100.00
2023-04-09T05:02:33.521Z,100.00
2023-04-09T05:05:00.854Z,100.00
2023-04-09T05:07:27.954Z,100.00
2023-04-09T05:15:47.603Z,100.00
2023-04-09T05:18:16.336Z,98.25
2023-04-09T05:20:43.530Z,97.74
2023-04-09T05:23:29.755Z,97.12
2023-04-09T05:25:56.746Z,94.81
2023-04-09T05:28:24.120Z,95.85
2023-04-09T05:30:51.704Z,94.87
2023-04-09T05:33:18.982Z,91.61
2023-04-09T05:35:46.254Z,93.20
2023-04-09T05:38:18.205Z,94.30
2023-04-09T05:40:46.306Z,94.04
2023-04-09T05:43:13.271Z,91.48
2023-04-09T05:45:49.753Z,91.68
2023-04-09T05:48:25.176Z,89.78
2023-04-09T05:50:56.035Z,88.20
2023-04-09T05:53:23.239Z,91.83
2023-04-09T05:56:01.392Z,94.00
2023-04-09T05:58:42.280Z,94.60
2023-04-09T06:01:10.125Z,92.77
2023-04-09T06:04:12.760Z,88.88
2023-04-09T06:09:15.326Z,85.37
2023-04-09T06:11:44.741Z,81.89
2023-04-09T06:20:17.760Z,83.29
2023-04-09T06:23:30.773Z,82.96
2023-04-09T06:26:01.917Z,77.00
2023-04-09T06:28:34.695Z,72.52
2023-04-09T06:31:06.620Z,74.94
2023-04-09T06:49:39.429Z,75.40
2023-04-09T07:16:24.065Z,77.00
2023-04-09T07:19:04.371Z,72.27
2023-04-09T07:21:35.863Z,73.83
2023-04-09T07:24:02.885Z,70.97
2023-04-09T07:26:32.551Z,69.01
2023-04-09T07:28:59.663Z,70.40
2023-04-09T07:31:27.491Z,67.01
2023-04-09T07:33:54.875Z,64.90
2023-04-09T07:36:27.275Z,70.26
2023-04-09T07:38:55.274Z,70.83
2023-04-09T07:41:22.853Z,67.12
2023-04-09T07:44:01.763Z,65.55
2023-04-09T07:46:30.936Z,66.55
2023-04-09T07:49:06.493Z,64.66
2023-04-09T07:51:33.867Z,65.70
2023-04-09T07:54:00.685Z,66.32
2023-04-09T07:56:27.768Z,65.67
2023-04-09T07:58:58.727Z,68.20
2023-04-09T08:01:29.925Z,70.13
2023-04-09T08:03:57.851Z,69.44
2023-04-09T08:06:32.466Z,69.32
2023-04-09T08:09:14.886Z,68.49
2023-04-09T08:32:16.635Z,68.31
2023-04-09T08:46:51.166Z,67.19
2023-04-09T08:49:43.483Z,66.84
2023-04-09T08:52:19.516Z,66.41
2023-04-09T08:55:07.028Z,65.83
2023-04-09T08:57:41.178Z,71.61
2023-04-09T09:00:08.792Z,66.36
2023-04-09T09:02:36.244Z,67.66
2023-04-09T09:05:04.130Z,64.73
2023-04-09T09:07:31.819Z,63.61
2023-04-09T09:10:02.506Z,61.86
2023-04-09T09:12:40.931Z,62.38
2023-04-09T09:15:27.592Z,60.32
2023-04-09T09:18:00.012Z,62.69
2023-04-09T09:20:27.866Z,61.97
2023-04-09T09:22:57.188Z,63.78
2023-04-09T09:25:26.647Z,60.77
2023-04-09T09:27:54.864Z,60.71
2023-04-09T09:30:27.066Z,60.28
2023-04-09T09:33:10.778Z,61.60
2023-04-09T09:35:58.824Z,59.98
2023-04-09T09:38:25.920Z,59.66
2023-04-09T09:40:52.841Z,60.86
2023-04-09T09:43:20.028Z,60.93
2023-04-09T09:45:47.712Z,59.53
2023-04-09T09:48:16.007Z,58.61
2023-04-09T09:50:44.638Z,59.14
2023-04-09T09:53:12.199Z,58.93
2023-04-09T09:55:41.605Z,56.35
2023-04-09T09:58:24.233Z,56.51
2023-04-09T10:00:52.909Z,55.36
2023-04-09T10:03:29.564Z,55.92
2023-04-09T10:05:59.176Z,55.80
2023-04-09T10:08:28.962Z,55.27
2023-04-09T10:10:56.538Z,55.86
2023-04-09T10:13:35.908Z,54.65
2023-04-09T10:16:03.744Z,54.25
2023-04-09T10:18:33.696Z,54.46
2023-04-09T10:21:19.241Z,53.88
2023-04-09T10:23:49.641Z,52.56
2023-04-09T10:26:18.901Z,52.51
2023-04-09T10:28:46.165Z,52.39
2023-04-09T10:31:14.406Z,52.94
2023-04-09T10:33:44.021Z,52.01
2023-04-09T10:36:13.188Z,52.59
2023-04-09T10:38:41.701Z,51.55
2023-04-09T10:41:10.388Z,52.02
2023-04-09T10:43:37.715Z,54.19
2023-04-09T10:46:25.104Z,55.42
2023-04-09T10:49:18.353Z,53.22
2023-04-09T10:52:10.898Z,52.89
2023-04-09T10:54:46.799Z,51.53
2023-04-09T10:57:18.185Z,52.28
2023-04-09T10:59:50.647Z,50.56
2023-04-09T11:02:21.322Z,51.99
2023-04-09T11:05:11.070Z,49.78
2023-04-09T11:07:44.044Z,53.09
2023-04-09T11:10:10.838Z,51.76
2023-04-09T11:12:37.888Z,50.44
2023-04-09T11:15:05.291Z,52.79
2023-04-09T11:17:37.208Z,53.65
2023-04-09T11:20:04.711Z,53.41
2023-04-09T11:22:32.020Z,52.43
2023-04-09T11:24:58.726Z,52.99
2023-04-09T11:27:26.146Z,53.51
2023-04-09T11:29:56.692Z,54.49
2023-04-09T11:32:29.406Z,56.45
2023-04-09T11:34:58.334Z,57.70
2023-04-09T11:37:25.256Z,58.26
2023-04-09T11:39:57.745Z,59.69
2023-04-09T11:42:25.949Z,59.33
2023-04-09T11:44:56.214Z,59.08
2023-04-09T11:47:25.315Z,61.56
2023-04-09T11:49:54.964Z,61.79
2023-04-09T11:52:21.943Z,60.64
2023-04-09T11:54:50.005Z,60.63
2023-04-09T11:57:17.868Z,64.35
2023-04-09T11:59:45.332Z,68.55
2023-04-09T12:02:12.598Z,68.08
2023-04-09T12:04:54.408Z,69.10
2023-04-09T12:07:22.354Z,71.60
2023-04-09T12:13:08.327Z,69.06
2023-04-09T12:15:37.361Z,70.15
2023-04-09T12:18:08.019Z,70.27
2023-04-09T12:20:40.227Z,68.72
2023-04-09T12:23:08.468Z,70.00
2023-04-09T12:25:37.938Z,69.00
2023-04-09T12:28:10.255Z,69.96
2023-04-09T12:30:37.202Z,69.56
2023-04-09T12:33:04.845Z,70.33
2023-04-09T12:35:34.886Z,70.21
2023-04-09T12:38:11.852Z,71.11
2023-04-09T12:40:47.817Z,70.95
2023-04-09T12:43:14.652Z,70.38
2023-04-09T12:45:43.005Z,67.81
2023-04-09T12:48:10.225Z,67.41
2023-04-09T12:50:37.306Z,65.57
2023-04-09T12:53:05.868Z,65.56
2023-04-09T12:55:35.739Z,66.08
2023-04-09T13:00:54.619Z,67.07
2023-04-09T13:03:21.917Z,70.90
2023-04-09T13:05:49.680Z,69.50
2023-04-09T13:08:20.406Z,70.28
2023-04-09T13:10:49.950Z,74.17
2023-04-09T13:16:15.632Z,79.00
2023-04-09T13:18:46.372Z,81.88
2023-04-09T13:21:24.109Z,83.32
2023-04-09T13:24:01.024Z,84.21
2023-04-09T13:26:44.605Z,86.63
2023-04-09T13:29:14.185Z,86.77
2023-04-09T13:32:06.347Z,89.36
2023-04-09T13:34:36.881Z,89.11
2023-04-09T13:37:05.522Z,87.57
2023-04-09T13:39:44.727Z,84.94
2023-04-09T13:42:25.095Z,84.13
2023-04-09T13:48:01.390Z,88.18
2023-04-09T13:51:12.210Z,87.42
2023-04-09T13:53:54.036Z,88.39
2023-04-09T13:56:34.893Z,84.36
2023-04-09T13:59:03.884Z,83.23
2023-04-09T14:01:32.982Z,85.92
2023-04-09T14:04:13.468Z,87.49
2023-04-09T14:06:41.014Z,92.13
2023-04-09T14:09:13.774Z,90.80
2023-04-09T14:11:40.805Z,91.22
2023-04-09T14:15:24.009Z,92.37
2023-04-09T14:17:51.908Z,96.47
2023-04-09T14:20:21.461Z,92.14
2023-04-09T14:23:12.316Z,91.39
2023-04-09T14:25:42.436Z,91.44
2023-04-09T14:28:09.313Z,90.58
2023-04-09T14:33:36.676Z,89.03
2023-04-09T14:36:03.687Z,88.61
2023-04-09T14:38:31.162Z,88.85
2023-04-09T14:40:58.413Z,91.98
2023-04-09T14:43:28.497Z,90.14
2023-04-09T14:45:55.606Z,88.51
2023-04-09T14:48:25.541Z,89.13
2023-04-09T14:50:52.693Z,89.06
2023-04-09T14:53:19.867Z,87.72
2023-04-09T14:55:46.924Z,88.53
2023-04-09T14:58:13.871Z,90.04
2023-04-09T15:00:45.534Z,88.27
2023-04-09T15:03:19.248Z,86.62
2023-04-09T15:05:49.880Z,85.74
2023-04-09T15:08:16.877Z,84.75
2023-04-09T15:10:43.796Z,84.63
2023-04-09T15:13:13.708Z,83.76
2023-04-09T15:16:15.870Z,84.13
2023-04-09T15:19:07.113Z,85.70
2023-04-09T15:21:34.432Z,88.81
2023-04-09T15:24:06.791Z,86.05
2023-04-09T15:26:43.461Z,89.22
2023-04-09T15:45:16.711Z,100.00
2023-04-09T15:47:47.350Z,100.00
2023-04-09T15:50:14.925Z,100.00
2023-04-09T15:52:42.267Z,100.00
2023-04-09T15:55:09.867Z,100.00
2023-04-09T15:57:38.424Z,100.00
2023-04-09T16:00:08.397Z,100.00
2023-04-09T16:02:37.035Z,100.00
2023-04-09T16:05:06.176Z,100.00
2023-04-09T16:07:33.757Z,100.00
2023-04-09T16:10:01.840Z,100.00
2023-04-09T16:12:28.909Z,100.00
2023-04-09T16:14:55.816Z,100.00
2023-04-09T16:17:25.414Z,100.00
2023-04-09T16:19:55.083Z,100.00
2023-04-09T16:22:22.354Z,100.00
2023-04-09T16:24:50.681Z,100.00
2023-04-09T16:27:17.497Z,100.00
2023-04-09T16:29:44.649Z,100.00
2023-04-09T16:32:11.618Z,100.00
2023-04-09T16:34:38.830Z,100.00
2023-04-09T16:37:05.982Z,100.00
2023-04-09T16:39:32.882Z,100.00
2023-04-09T16:41:59.722Z,100.00
2023-04-09T16:44:26.579Z,100.00
2023-04-09T16:46:53.362Z,100.00
2023-04-09T16:49:20.443Z,100.00
2023-04-09T16:51:47.554Z,100.00
2023-04-09T16:54:14.500Z,100.00
2023-04-09T16:56:41.595Z,100.00
2023-04-09T16:59:21.446Z,100.00
2023-04-09T17:01:51.277Z,100.00
2023-04-09T17:04:18.572Z,100.00
2023-04-09T17:15:31.700Z,100.00
2023-04-09T17:17:58.814Z,100.00
2023-04-09T17:23:16.768Z,100.00
2023-04-09T17:25:44.094Z,100.00
2023-04-09T17:28:29.526Z,100.00
2023-04-09T17:30:59.363Z,100.00
2023-04-09T17:33:29.620Z,100.00
2023-04-09T18:22:58.522Z,100.00
2023-04-09T18:25:25.671Z,100.00
2023-04-09T18:27:54.030Z,100.00
2023-04-09T19:17:54.406Z,100.00
2023-04-09T19:20:29.306Z,100.00
2023-04-09T19:22:57.839Z,100.00
2023-04-09T19:25:26.851Z,100.00
2023-04-09T19:27:54.679Z,100.00
2023-04-09T19:30:22.385Z,100.00
2023-04-09T19:32:49.300Z,100.00
2023-04-09T19:35:16.365Z,100.00
2023-04-09T19:37:43.938Z,100.00
2023-04-09T19:40:11.477Z,100.00
2023-04-09T19:42:38.824Z,100.00
2023-04-09T19:45:06.655Z,100.00
2023-04-09T19:47:34.973Z,100.00
2023-04-09T19:50:02.167Z,100.00
2023-04-09T19:52:29.267Z,100.00
2023-04-09T19:54:57.140Z,100.00
2023-04-09T19:57:24.265Z,100.00
2023-04-09T19:59:55.766Z,100.00
2023-04-09T20:02:24.272Z,100.00
2023-04-09T20:04:53.130Z,100.00
2023-04-09T20:07:20.609Z,100.00
2023-04-09T20:09:47.750Z,100.00
2023-04-09T20:12:14.856Z,100.00
2023-04-09T20:14:42.067Z,100.00
2023-04-09T20:17:09.931Z,100.00
2023-04-09T20:19:40.586Z,100.00
2023-04-09T20:22:07.467Z,100.00
2023-04-09T20:24:35.519Z,100.00
2023-04-09T20:27:04.477Z,100.00
2023-04-09T20:29:32.555Z,100.00
2023-04-09T20:32:00.294Z,100.00
2023-04-09T20:34:27.736Z,100.00
2023-04-09T20:36:55.350Z,100.00
2023-04-09T20:39:25.102Z,100.00
2023-04-09T20:41:52.021Z,100.00
2023-04-09T20:44:22.913Z,100.00
2023-04-09T20:46:51.090Z,100.00
2023-04-09T20:49:18.240Z,100.00
2023-04-09T20:51:46.497Z,100.00
2023-04-09T20:54:13.378Z,100.00
2023-04-09T20:56:40.244Z,100.00
2023-04-09T20:59:07.937Z,100.00
2023-04-09T21:01:36.024Z,100.00
2023-04-09T21:04:04.239Z,100.00
2023-04-09T21:06:31.775Z,100.00
2023-04-09T21:08:59.856Z,100.00
2023-04-09T21:11:26.874Z,100.00
2023-04-09T21:13:55.591Z,100.00
2023-04-09T21:16:23.616Z,100.00
2023-04-09T21:18:51.038Z,100.00
2023-04-09T21:21:19.299Z,100.00
2023-04-09T21:23:46.335Z,100.00
2023-04-09T21:26:14.267Z,100.00
2023-04-09T21:28:41.406Z,100.00
2023-04-09T21:31:11.652Z,100.00
2023-04-09T21:33:39.449Z,100.00
2023-04-09T21:36:08.438Z,100.00
2023-04-09T21:38:35.694Z,100.00
2023-04-09T21:41:02.460Z,100.00
2023-04-09T21:43:30.619Z,100.00
2023-04-09T21:45:57.824Z,100.00
2023-04-09T21:48:25.892Z,100.00
2023-04-09T21:50:53.469Z,100.00
2023-04-09T21:53:20.457Z,100.00
2023-04-09T21:55:47.705Z,100.00
2023-04-09T21:58:15.804Z,100.00
2023-04-09T22:00:43.148Z,100.00
2023-04-09T22:03:10.363Z,100.00
2023-04-09T22:05:38.096Z,100.00
2023-04-09T22:08:05.160Z,100.00
2023-04-09T22:10:32.362Z,100.00
2023-04-09T22:12:59.844Z,100.00
2023-04-09T22:15:26.898Z,100.00
2023-04-09T22:17:54.327Z,100.00
2023-04-09T22:20:21.808Z,100.00
2023-04-09T22:22:49.017Z,100.00
2023-04-09T22:25:19.007Z,100.00
2023-04-09T22:27:51.159Z,100.00
2023-04-09T22:30:18.508Z,100.00
2023-04-09T22:32:45.567Z,100.00
2023-04-09T22:35:18.699Z,100.00
2023-04-09T22:37:47.250Z,100.00
2023-04-09T22:40:16.224Z,100.00
2023-04-09T22:42:44.300Z,100.00
2023-04-09T22:45:11.421Z,100.00
2023-04-09T22:47:38.931Z,100.00
2023-04-09T22:50:07.334Z,100.00
2023-04-09T22:52:34.214Z,100.00
2023-04-09T22:55:01.556Z,100.00
2023-04-09T22:57:28.787Z,100.00
2023-04-09T22:59:57.960Z,100.00
2023-04-09T23:02:24.957Z,100.00
2023-04-09T23:04:52.274Z,100.00
2023-04-09T23:07:19.147Z,100.00
2023-04-09T23:09:46.024Z,100.00
2023-04-09T23:12:13.027Z,100.00
2023-04-09T23:14:39.879Z,100.00
2023-04-09T23:17:07.165Z,100.00
2023-04-09T23:19:34.197Z,100.00
2023-04-09T23:22:01.046Z,100.00
2023-04-09T23:24:27.858Z,100.00
2023-04-09T23:26:54.870Z,100.00
2023-04-09T23:29:21.803Z,100.00
2023-04-09T23:31:48.697Z,100.00
2023-04-09T23:34:15.883Z,100.00
2023-04-09T23:36:42.806Z,100.00
2023-04-09T23:39:09.803Z,100.00
2023-04-09T23:41:37.958Z,100.00
2023-04-09T23:44:04.988Z,100.00
2023-04-09T23:46:32.445Z,100.00
2023-04-09T23:48:59.431Z,100.00
2023-04-09T23:51:26.206Z,100.00
2023-04-09T23:53:53.323Z,100.00
2023-04-09T23:56:20.535Z,100.00
2023-04-09T23:58:47.266Z,100.00
